Flight Number: EUR1336 Duration: 1:15
Departure: Stavanger (ENZV) at 14:00 Distance: 348 Nm
Arrival: Hamburg Fuhlsbuettel (EDDH) at 15:15 Equipment: B737

Weather Information
Stavanger / Sola, Norway (ENZV) 58-53N 005-38E 9M Jan 21, 2019 - 06:50 AM EST / 2019.01.21 1150 UTC
Wind: from the SSE (150 degrees) at 2 MPH (2 KT):0
Visibility: greater than 7 mile(s):0
Sky conditions: mostly clear Temperature: 37 F (3 C) Dew Point: 33 F (1 C) Relative Humidity: 86% Pressure (altimeter): 29.97 in. Hg (1015 hPa)
ob: ENZV 211150Z 15002KT 9999 FEW040 03/01 Q1015 NOSIG cycle: 12
Sunrise: 08:12 Sunset: 15:25 (UTC)

Hamburg-Fuhlsbuettel, Germany (EDDH) 53-38N 010-00E 15M Jan 21, 2019 - 06:50 AM EST / 2019.01.21 1150 UTC
Wind: from the SW (220 degrees) at 9 MPH (8 KT):0
Visibility: 4 mile(s):0
Sky conditions: mostly cloudy Temperature: 28 F (-2 C)
Windchill: 19 F (-7 C):1 Dew Point: 23 F (-5 C) Relative Humidity: 79% Pressure (altimeter): 30.09 in. Hg (1019 hPa)
ob: EDDH 211150Z 22008KT 8000 BKN015 M02/M05 Q1019 R05/510195 R15/510194 TEMPO 3500 -SN BKN014 cycle: 12
Sunrise: 07:26 Sunset: 15:36 (UTC)

TAF:2019/01/21 12:27 TAF EDDH 211100Z 2112/2218 21008KT 9000 SCT025 TEMPO 2112/2114 3000 -SN BKN012 TEMPO 2120/2206 3500 -SN BR BKN008 BECMG 2209/2212 15008KT

Previous Pireps for this route
Date Aircraft Flight time Fuel used Landing rate On time
2013-08-04B73701.177700-784No
2014-01-02B73701.188671-405Yes
2014-08-05B73701.267629-231No
2015-04-18B73701.217598-50No
2016-03-20B73701.156417-845Yes
2016-06-24B73701.247485-568No
(pireps marked green are flown by you)

Route map